createdAt,value
2022-10-13T00:01:18.790Z,1
2022-10-13T00:03:15.312Z,1
2022-10-13T00:05:15.143Z,1
2022-10-13T00:07:15.428Z,1
2022-10-13T00:09:15.363Z,1
2022-10-13T00:11:14.883Z,1
2022-10-13T00:13:15.542Z,1
2022-10-13T00:15:18.552Z,1
2022-10-13T00:17:15.247Z,1
2022-10-13T00:19:18.459Z,1
2022-10-13T00:21:15.539Z,1
2022-10-13T00:23:18.677Z,1
2022-10-13T00:25:17.781Z,1
2022-10-13T00:27:21.763Z,1
2022-10-13T00:29:15.199Z,1
2022-10-13T00:31:15.141Z,1
2022-10-13T00:33:15.090Z,1
2022-10-13T00:35:21.711Z,1
2022-10-13T00:37:14.495Z,1
2022-10-13T00:39:21.033Z,1
2022-10-13T00:41:14.591Z,1
2022-10-13T00:43:21.841Z,1
2022-10-13T00:45:18.574Z,1
2022-10-13T00:47:15.352Z,1
2022-10-13T00:49:15.636Z,1
2022-10-13T00:51:24.684Z,1
2022-10-13T00:53:15.078Z,1
2022-10-13T00:55:14.729Z,1
2022-10-13T00:57:18.665Z,1
2022-10-13T00:59:14.496Z,1
2022-10-13T01:01:15.332Z,1
2022-10-13T01:03:15.447Z,1
2022-10-13T01:05:14.546Z,1
2022-10-13T01:07:17.830Z,1
2022-10-13T01:09:15.258Z,1
2022-10-13T01:11:15.014Z,1
2022-10-13T01:13:14.935Z,1
2022-10-13T01:15:15.158Z,1
2022-10-13T01:17:15.209Z,1
2022-10-13T01:19:15.409Z,1
2022-10-13T01:21:15.114Z,1
2022-10-13T01:23:14.839Z,1
2022-10-13T01:25:15.457Z,1
2022-10-13T01:27:15.335Z,1
2022-10-13T01:29:15.377Z,1
2022-10-13T01:31:15.504Z,1
2022-10-13T01:33:15.419Z,1
2022-10-13T01:35:15.549Z,1
2022-10-13T01:37:15.030Z,1
2022-10-13T01:39:15.396Z,1
2022-10-13T01:43:15.153Z,1
2022-10-13T01:45:14.838Z,1
2022-10-13T01:47:18.625Z,1
2022-10-13T01:49:18.275Z,1
2022-10-13T01:51:14.536Z,1
2022-10-13T01:53:15.136Z,1
2022-10-13T01:55:18.631Z,1
2022-10-13T01:57:14.769Z,1
2022-10-13T01:59:15.549Z,1
2022-10-13T02:01:15.358Z,1
2022-10-13T02:03:15.433Z,1
2022-10-13T02:05:14.630Z,1
2022-10-13T02:07:18.248Z,1
2022-10-13T02:09:18.480Z,1
2022-10-13T02:11:15.306Z,1
2022-10-13T02:13:21.877Z,1
2022-10-13T02:15:17.778Z,1
2022-10-13T02:17:14.520Z,1
2022-10-13T02:19:15.179Z,1
2022-10-13T02:21:21.804Z,1
2022-10-13T02:23:14.780Z,1
2022-10-13T02:25:18.542Z,1
2022-10-13T02:27:15.241Z,1
2022-10-13T02:29:15.197Z,1
2022-10-13T02:31:17.995Z,1
2022-10-13T02:33:14.558Z,1
2022-10-13T02:35:15.061Z,1
2022-10-13T02:37:15.299Z,1
2022-10-13T02:39:15.444Z,1
2022-10-13T02:41:15.339Z,1
2022-10-13T02:43:14.905Z,1
2022-10-13T02:45:14.736Z,1
2022-10-13T02:47:15.399Z,1
2022-10-13T02:49:14.527Z,1
2022-10-13T02:51:21.424Z,1
2022-10-13T02:53:21.509Z,1
2022-10-13T02:55:18.605Z,1
2022-10-13T02:59:15.059Z,1
2022-10-13T03:01:14.781Z,1
2022-10-13T03:03:18.536Z,1
2022-10-13T03:05:14.521Z,1
2022-10-13T03:09:18.614Z,1
2022-10-13T03:11:15.233Z,1
2022-10-13T03:13:14.635Z,1
2022-10-13T03:15:14.781Z,1
2022-10-13T03:17:14.198Z,1
2022-10-13T03:19:15.506Z,1
2022-10-13T03:21:15.122Z,1
2022-10-13T03:23:14.523Z,1
2022-10-13T03:25:15.543Z,1
2022-10-13T03:27:14.680Z,1
2022-10-13T03:29:14.624Z,1
2022-10-13T03:31:18.539Z,1
2022-10-13T03:33:15.146Z,1
2022-10-13T03:35:15.229Z,1
2022-10-13T03:37:15.093Z,1
2022-10-13T03:39:15.472Z,1
2022-10-13T03:41:15.161Z,1
2022-10-13T03:43:18.455Z,1
2022-10-13T03:45:14.642Z,1
2022-10-13T03:49:14.548Z,1
2022-10-13T03:51:14.794Z,1
2022-10-13T03:53:15.498Z,1
2022-10-13T03:55:15.216Z,1
2022-10-13T03:57:18.668Z,1
2022-10-13T03:59:15.449Z,1
2022-10-13T04:01:14.701Z,1
2022-10-13T04:03:15.272Z,1
2022-10-13T04:05:18.254Z,1
2022-10-13T04:07:15.363Z,1
2022-10-13T04:09:15.105Z,1
2022-10-13T04:11:15.302Z,1
2022-10-13T04:13:15.362Z,1
2022-10-13T04:15:15.100Z,1
2022-10-13T04:17:15.292Z,1
2022-10-13T04:19:14.683Z,1
2022-10-13T04:21:15.166Z,1
2022-10-13T04:23:15.603Z,1
2022-10-13T04:25:15.234Z,1
2022-10-13T04:27:15.086Z,1
2022-10-13T04:29:14.817Z,1
2022-10-13T04:31:17.711Z,1
2022-10-13T04:33:19.018Z,1
2022-10-13T04:35:15.122Z,1
2022-10-13T04:37:15.110Z,1
2022-10-13T04:39:14.931Z,1
2022-10-13T04:41:14.563Z,1
2022-10-13T04:43:15.137Z,1
2022-10-13T04:45:15.459Z,1
2022-10-13T04:47:17.824Z,1
2022-10-13T04:49:14.656Z,0
2022-10-13T04:51:14.592Z,0
2022-10-13T04:53:19.016Z,0
2022-10-13T04:55:14.653Z,0.1
2022-10-13T04:57:15.361Z,0.1
2022-10-13T04:59:21.750Z,0.1
2022-10-13T05:01:18.972Z,0.3
2022-10-13T05:03:15.489Z,0.3
2022-10-13T05:05:15.318Z,0.4
2022-10-13T05:07:17.770Z,0.7
2022-10-13T05:09:18.479Z,1
2022-10-13T05:11:14.686Z,1.4
2022-10-13T05:13:14.615Z,2
2022-10-13T05:15:15.180Z,3
2022-10-13T05:17:17.712Z,4.7
2022-10-13T05:19:14.670Z,6.4
2022-10-13T05:21:18.448Z,8.2
2022-10-13T05:23:14.776Z,10.5
2022-10-13T05:25:15.361Z,14.2
2022-10-13T05:27:14.957Z,20.1
2022-10-13T05:29:14.470Z,24.5
2022-10-13T05:31:15.185Z,30
2022-10-13T05:33:15.411Z,36.6
2022-10-13T05:35:21.407Z,42.5
2022-10-13T05:37:14.718Z,49.4
2022-10-13T05:39:18.835Z,57.4
2022-10-13T05:41:14.702Z,66.7
2022-10-13T05:43:18.741Z,73.7
2022-10-13T05:45:18.660Z,81.5
2022-10-13T05:47:15.236Z,94.6
2022-10-13T05:49:15.246Z,104.6
2022-10-13T05:53:15.471Z,127.7
2022-10-13T05:55:14.662Z,141.2
2022-10-13T05:57:18.297Z,156
2022-10-13T05:59:15.459Z,172.4
2022-10-13T06:01:14.798Z,190.6
2022-10-13T06:03:18.585Z,210.6
2022-10-13T06:05:17.749Z,232.8
2022-10-13T06:07:15.255Z,232.8
2022-10-13T06:09:15.202Z,232.8
2022-10-13T06:13:14.658Z,257.2
2022-10-13T06:15:25.755Z,257.2
2022-10-13T06:17:14.687Z,257.2
2022-10-13T06:19:15.520Z,284.3
2022-10-13T06:21:18.654Z,257.2
2022-10-13T06:25:15.298Z,314.2
2022-10-13T06:27:14.580Z,298.9
2022-10-13T06:29:14.600Z,298.9
2022-10-13T06:31:18.775Z,314.2
2022-10-13T06:33:15.369Z,330.3
2022-10-13T06:35:15.153Z,330.3
2022-10-13T06:37:15.134Z,330.3
2022-10-13T06:39:16.079Z,365
2022-10-13T06:43:15.535Z,383.8
2022-10-13T06:45:15.325Z,383.8
2022-10-13T06:47:15.219Z,403.4
2022-10-13T06:51:18.299Z,403.4
2022-10-13T06:53:18.783Z,424.1
2022-10-13T06:55:21.941Z,424.1
2022-10-13T06:59:18.713Z,468.7
2022-10-13T07:01:14.770Z,492.7
2022-10-13T07:03:18.582Z,518
2022-10-13T07:05:15.471Z,572.5
2022-10-13T07:07:14.811Z,601.8
2022-10-13T07:09:15.022Z,699.2
2022-10-13T07:11:18.646Z,699.2
2022-10-13T07:13:14.654Z,735.1
2022-10-13T07:15:14.678Z,735.1
2022-10-13T07:17:15.304Z,772.8
2022-10-13T07:19:14.706Z,735.1
2022-10-13T07:21:15.244Z,699.2
2022-10-13T07:23:14.585Z,699.2
2022-10-13T07:25:15.237Z,699.2
2022-10-13T07:27:14.601Z,665.1
2022-10-13T07:29:14.700Z,632.7
2022-10-13T07:31:21.869Z,735.1
2022-10-13T07:33:14.693Z,735.1
2022-10-13T07:35:15.247Z,772.8
2022-10-13T07:37:15.060Z,812.4
2022-10-13T07:39:15.447Z,854.1
2022-10-13T07:41:14.865Z,772.8
2022-10-13T07:43:15.315Z,735.1
2022-10-13T07:45:21.311Z,897.8
2022-10-13T07:47:15.270Z,992.3
2022-10-13T07:49:16.021Z,1096.6
2022-10-13T07:51:14.683Z,1096.6
2022-10-13T07:53:15.133Z,1096.6
2022-10-13T07:55:21.825Z,1096.6
2022-10-13T07:57:17.724Z,1043.1
2022-10-13T07:59:14.616Z,992.3
2022-10-13T08:01:18.530Z,992.3
2022-10-13T08:03:18.206Z,1096.6
2022-10-13T08:05:18.789Z,1339.4
2022-10-13T08:07:15.396Z,1480.3
2022-10-13T08:09:22.919Z,1480.3
2022-10-13T08:11:18.105Z,1480.3
2022-10-13T08:13:14.681Z,1480.3
2022-10-13T08:15:14.667Z,1408.1
2022-10-13T08:17:18.924Z,1274.1
2022-10-13T08:19:14.598Z,992.3
2022-10-13T08:21:56.722Z,992.3
2022-10-13T08:23:18.784Z,943.9
2022-10-13T08:25:15.243Z,943.9
2022-10-13T08:29:23.236Z,1096.6
2022-10-13T08:31:15.503Z,1274.1
2022-10-13T08:33:18.885Z,1274.1
2022-10-13T08:35:15.100Z,1480.3
2022-10-13T08:37:15.140Z,1636
2022-10-13T08:41:15.313Z,2100.6
2022-10-13T08:43:15.193Z,2100.6
2022-10-13T08:45:40.678Z,2100.6
2022-10-13T08:47:15.155Z,1719.9
2022-10-13T08:49:15.422Z,1480.3
2022-10-13T08:51:14.822Z,1274.1
2022-10-13T08:53:15.410Z,1556.2
2022-10-13T08:55:18.832Z,1719.9
2022-10-13T08:57:14.873Z,1808
2022-10-13T08:59:15.309Z,1808
2022-10-13T09:01:14.696Z,1900.7
2022-10-13T09:03:15.028Z,1900.7
2022-10-13T09:05:14.807Z,1998.2
2022-10-13T09:07:18.972Z,2100.6
2022-10-13T09:09:15.467Z,1808
2022-10-13T09:11:15.376Z,1998.2
2022-10-13T09:15:18.407Z,2835.6
2022-10-13T09:19:15.203Z,3294.5
2022-10-13T09:21:15.090Z,2835.6
2022-10-13T09:23:14.745Z,3827.6
2022-10-13T09:25:14.882Z,4675.1
2022-10-13T09:27:16.268Z,4675.1
2022-10-13T09:29:14.630Z,3294.5
2022-10-13T09:31:14.800Z,3133.8
2022-10-13T09:33:18.203Z,3463.4
2022-10-13T09:35:15.330Z,4230.2
2022-10-13T09:37:14.913Z,4447.1
2022-10-13T09:39:15.148Z,4675.1
2022-10-13T09:41:15.531Z,4230.2
2022-10-13T09:43:15.193Z,4447.1
2022-10-13T09:45:21.809Z,6002.9
2022-10-13T09:47:18.529Z,5166.8
2022-10-13T09:49:14.896Z,6310.7
2022-10-13T09:51:14.794Z,6002.9
2022-10-13T09:55:14.732Z,5166.8
2022-10-13T09:57:18.789Z,4675.1
2022-10-13T09:59:15.169Z,3294.5
2022-10-13T10:01:18.299Z,3641
2022-10-13T10:03:15.153Z,2835.6
2022-10-13T10:05:21.981Z,2208.3
2022-10-13T10:07:18.968Z,2565.7
2022-10-13T10:09:14.706Z,3133.8
2022-10-13T10:11:18.595Z,4447.1
2022-10-13T10:13:14.681Z,3463.4
2022-10-13T10:15:15.460Z,4230.2
2022-10-13T10:17:22.396Z,4675.1
2022-10-13T10:19:18.416Z,4447.1
2022-10-13T10:21:18.181Z,6634.2
2022-10-13T10:23:14.715Z,6310.7
2022-10-13T10:25:14.719Z,9897.1
2022-10-13T10:27:14.824Z,6974.4
2022-10-13T10:29:15.337Z,7707.9
2022-10-13T10:31:18.707Z,5166.8
2022-10-13T10:33:14.718Z,4447.1
2022-10-13T10:35:18.354Z,4447.1
2022-10-13T10:37:14.621Z,4914.8
2022-10-13T10:39:14.731Z,5166.8
2022-10-13T10:41:15.234Z,4914.8
2022-10-13T10:43:15.265Z,4447.1
2022-10-13T10:45:14.874Z,5431.7
2022-10-13T10:47:17.476Z,5710.1
2022-10-13T10:49:15.619Z,5431.7
2022-10-13T10:51:15.539Z,6634.2
2022-10-13T10:53:18.802Z,11498.8
2022-10-13T10:55:14.818Z,15521.8
2022-10-13T10:57:15.374Z,24343
2022-10-13T10:59:15.621Z,25591.1
2022-10-13T11:01:21.507Z,24343
2022-10-13T11:03:15.378Z,10404.6
2022-10-13T11:05:15.312Z,26903.2
2022-10-13T11:07:21.486Z,40134.8
2022-10-13T11:09:18.580Z,13359.7
2022-10-13T11:11:14.770Z,14764.8
2022-10-13T11:13:21.809Z,38177.4
2022-10-13T11:15:18.704Z,20952.2
2022-10-13T11:17:18.691Z,34544.4
2022-10-13T11:19:18.086Z,17154.2
2022-10-13T11:21:14.986Z,28282.5
2022-10-13T11:23:18.655Z,23155.8
2022-10-13T11:25:15.152Z,8518.5
2022-10-13T11:27:15.406Z,11498.8
2022-10-13T11:29:21.862Z,18033.7
2022-10-13T11:31:15.277Z,18033.7
2022-10-13T11:33:14.735Z,14044.7
2022-10-13T11:35:17.874Z,14044.7
2022-10-13T11:37:14.698Z,12088.4
2022-10-13T11:39:14.748Z,9414.4
2022-10-13T11:41:18.511Z,11498.8
2022-10-13T11:45:18.570Z,9897.1
2022-10-13T11:47:19.080Z,9414.4
2022-10-13T11:49:15.249Z,8518.5
2022-10-13T11:51:21.002Z,8518.5
2022-10-13T11:53:14.636Z,6974.4
2022-10-13T11:55:15.117Z,7707.9
2022-10-13T11:57:15.537Z,8518.5
2022-10-13T11:59:15.540Z,10938
2022-10-13T12:01:19.185Z,10938
2022-10-13T12:03:15.140Z,16317.6
2022-10-13T12:05:15.845Z,20952.2
2022-10-13T12:07:14.718Z,20952.2
2022-10-13T12:09:18.732Z,14764.8
2022-10-13T12:11:15.252Z,31257
2022-10-13T12:13:14.713Z,34544.4
2022-10-13T12:15:14.706Z,31257
2022-10-13T12:17:17.140Z,34544.4
2022-10-13T12:19:18.783Z,23155.8
2022-10-13T12:21:14.737Z,14764.8
2022-10-13T12:23:14.689Z,11498.8
2022-10-13T12:25:14.975Z,14764.8
2022-10-13T12:27:22.193Z,20952.2
2022-10-13T12:29:15.223Z,11498.8
2022-10-13T12:31:15.386Z,11498.8
2022-10-13T12:33:14.879Z,9414.4
2022-10-13T12:35:14.741Z,10938
2022-10-13T12:37:18.789Z,18958.4
2022-10-13T12:39:18.568Z,16317.6
2022-10-13T12:41:18.167Z,8955.3
2022-10-13T12:43:15.200Z,12708.2
2022-10-13T12:45:14.730Z,10938
2022-10-13T12:47:14.762Z,8518.5
2022-10-13T12:49:15.436Z,8955.3
2022-10-13T12:51:14.760Z,8518.5
2022-10-13T12:53:15.652Z,8955.3
2022-10-13T12:55:14.730Z,7707.9
2022-10-13T12:57:15.271Z,8518.5
2022-10-13T13:01:18.763Z,6310.7
2022-10-13T13:03:21.915Z,5710.1
2022-10-13T13:05:14.733Z,5431.7
2022-10-13T13:07:14.947Z,5166.8
2022-10-13T13:09:18.347Z,4447.1
2022-10-13T13:11:15.173Z,4023.9
2022-10-13T13:13:15.542Z,3827.6
2022-10-13T13:15:18.657Z,4023.9
2022-10-13T13:17:17.494Z,4023.9
2022-10-13T13:19:15.143Z,4230.2
2022-10-13T13:21:15.713Z,4023.9
2022-10-13T13:23:14.917Z,4230.2
2022-10-13T13:25:18.728Z,4914.8
2022-10-13T13:27:14.713Z,5166.8
2022-10-13T13:29:15.362Z,4914.8
2022-10-13T13:31:18.075Z,5431.7
2022-10-13T13:33:15.337Z,5431.7
2022-10-13T13:35:18.722Z,4914.8
2022-10-13T13:37:14.848Z,4230.2
2022-10-13T13:41:18.716Z,4447.1
2022-10-13T13:43:15.119Z,4023.9
2022-10-13T13:45:14.754Z,3641
2022-10-13T13:47:14.792Z,3463.4
2022-10-13T13:49:15.587Z,3294.5
2022-10-13T13:51:15.398Z,3133.8
2022-10-13T13:53:15.487Z,2981
2022-10-13T13:55:15.325Z,2981
2022-10-13T13:57:14.724Z,3133.8
2022-10-13T13:59:18.776Z,2981
2022-10-13T14:01:22.065Z,2835.6
2022-10-13T14:03:19.451Z,2697.3
2022-10-13T14:05:15.408Z,2440.6
2022-10-13T14:07:14.837Z,2321.6
2022-10-13T14:09:15.457Z,2440.6
2022-10-13T14:11:21.929Z,2440.6
2022-10-13T14:15:18.713Z,2321.6
2022-10-13T14:17:14.762Z,2100.6
2022-10-13T14:19:15.413Z,1900.7
2022-10-13T14:21:15.355Z,1900.7
2022-10-13T14:23:14.849Z,1808
2022-10-13T14:25:14.893Z,1636
2022-10-13T14:27:15.024Z,1636
2022-10-13T14:29:21.910Z,1808
2022-10-13T14:31:14.633Z,1998.2
2022-10-13T14:33:15.647Z,1998.2
2022-10-13T14:35:14.723Z,1900.7
2022-10-13T14:39:15.345Z,1998.2
2022-10-13T14:43:15.443Z,1900.7
2022-10-13T14:45:14.959Z,1808
2022-10-13T14:47:15.176Z,1719.9
2022-10-13T14:49:15.449Z,1556.2
2022-10-13T14:51:14.741Z,1408.1
2022-10-13T14:53:14.950Z,1339.4
2022-10-13T14:55:24.494Z,1152.9
2022-10-13T14:59:55.782Z,812.4
2022-10-13T15:00:59.172Z,665.1
2022-10-13T15:03:03.353Z,601.8
2022-10-13T15:04:59.227Z,544.6
2022-10-13T15:06:59.357Z,572.5
2022-10-13T15:09:02.808Z,735.1
2022-10-13T15:10:58.668Z,943.9
2022-10-13T15:13:05.741Z,1274.1
2022-10-13T15:15:05.717Z,1408.1
2022-10-13T15:17:02.341Z,1408.1
2022-10-13T15:18:58.983Z,1636
2022-10-13T15:20:59.280Z,1636
2022-10-13T15:22:59.324Z,1480.3
2022-10-13T15:25:01.013Z,1339.4
2022-10-13T15:26:59.058Z,1274.1
2022-10-13T15:29:02.634Z,1096.6
2022-10-13T15:31:05.813Z,1043.1
2022-10-13T15:32:58.610Z,1043.1
2022-10-13T15:34:59.141Z,1096.6
2022-10-13T15:36:59.084Z,992.3
2022-10-13T15:38:58.984Z,943.9
2022-10-13T15:40:59.217Z,992.3
2022-10-13T15:42:59.234Z,1043.1
2022-10-13T15:45:10.667Z,943.9
2022-10-13T15:47:07.745Z,854.1
2022-10-13T15:48:58.989Z,854.1
2022-10-13T15:50:59.150Z,854.1
2022-10-13T15:52:59.103Z,854.1
2022-10-13T15:55:00.505Z,812.4
2022-10-13T15:56:59.005Z,812.4
2022-10-13T15:58:58.635Z,735.1
2022-10-13T16:01:00.545Z,735.1
2022-10-13T16:02:59.144Z,699.2
2022-10-13T16:06:59.121Z,572.5
2022-10-13T16:10:59.007Z,424.1
2022-10-13T16:13:04.537Z,383.8
2022-10-13T16:14:59.197Z,347.2
2022-10-13T16:17:00.842Z,298.9
2022-10-13T16:18:59.053Z,244.7
2022-10-13T16:21:02.559Z,200.3
2022-10-13T16:22:59.071Z,164
2022-10-13T16:27:02.249Z,99.5
2022-10-13T16:29:02.799Z,85.6
2022-10-13T16:30:58.775Z,70.1
2022-10-13T16:32:59.687Z,57.4
2022-10-13T16:35:02.689Z,44.7
2022-10-13T16:36:59.067Z,34.8
2022-10-13T16:41:02.517Z,20.1
2022-10-13T16:42:59.228Z,14.9
2022-10-13T16:45:02.466Z,10.5
2022-10-13T16:46:59.219Z,7.4
2022-10-13T16:48:59.374Z,5.2
2022-10-13T16:51:05.893Z,3.5
2022-10-13T16:53:02.312Z,2.3
2022-10-13T16:54:59.080Z,1.4
2022-10-13T16:57:00.739Z,1
2022-10-13T16:58:59.203Z,0.7
2022-10-13T17:00:58.869Z,0.5
2022-10-13T17:03:00.577Z,0.3
2022-10-13T17:04:59.234Z,0.2
2022-10-13T17:06:59.084Z,0.2
2022-10-13T17:08:59.101Z,0.1
2022-10-13T17:11:02.792Z,0
2022-10-13T17:13:05.816Z,0
2022-10-13T17:14:59.052Z,0
2022-10-13T17:16:59.088Z,0
2022-10-13T17:19:01.545Z,0
2022-10-13T17:24:59.129Z,1
2022-10-13T17:27:05.875Z,1
2022-10-13T17:28:59.205Z,1
2022-10-13T17:31:02.902Z,1
2022-10-13T17:33:04.485Z,1
2022-10-13T17:35:02.703Z,1
2022-10-13T17:37:02.726Z,1
2022-10-13T17:38:59.238Z,1
2022-10-13T17:40:59.726Z,1
2022-10-13T17:43:02.620Z,1
2022-10-13T17:44:59.161Z,1
2022-10-13T17:47:02.502Z,1
2022-10-13T17:48:59.127Z,1
2022-10-13T17:50:59.455Z,1
2022-10-13T17:52:59.103Z,1
2022-10-13T17:55:05.092Z,1
2022-10-13T17:56:59.029Z,1
2022-10-13T17:59:02.618Z,1
2022-10-13T18:01:13.185Z,1
2022-10-13T18:02:59.345Z,1
2022-10-13T18:04:59.082Z,1
2022-10-13T18:07:06.286Z,1
2022-10-13T18:09:02.687Z,1
2022-10-13T18:11:07.871Z,1
2022-10-13T18:12:58.846Z,1
2022-10-13T18:14:59.232Z,1
2022-10-13T18:16:59.196Z,1
2022-10-13T18:20:59.186Z,1
2022-10-13T18:22:58.807Z,1
2022-10-13T18:25:00.563Z,1
2022-10-13T18:26:59.195Z,1
2022-10-13T18:29:06.762Z,1
2022-10-13T18:30:59.086Z,1
2022-10-13T18:32:59.343Z,1
2022-10-13T18:34:59.882Z,1
2022-10-13T18:36:59.422Z,1
2022-10-13T18:39:01.244Z,1
2022-10-13T18:42:58.977Z,1
2022-10-13T18:44:58.950Z,1
2022-10-13T18:46:59.262Z,1
2022-10-13T18:48:58.958Z,1
2022-10-13T18:50:59.118Z,1
2022-10-13T18:53:03.941Z,1
2022-10-13T18:54:59.057Z,1
2022-10-13T18:56:59.506Z,1
2022-10-13T18:58:59.774Z,1
2022-10-13T19:00:59.379Z,1
2022-10-13T19:02:59.259Z,1
2022-10-13T19:05:04.604Z,1
2022-10-13T19:06:59.166Z,1
2022-10-13T19:09:09.936Z,1
2022-10-13T19:10:59.237Z,1
2022-10-13T19:13:02.772Z,1
2022-10-13T19:14:58.992Z,1
2022-10-13T19:17:01.885Z,1
2022-10-13T19:19:02.635Z,1
2022-10-13T19:21:05.787Z,1
2022-10-13T19:22:59.234Z,1
2022-10-13T19:25:01.032Z,1
2022-10-13T19:27:02.409Z,1
2022-10-13T19:28:59.309Z,1
2022-10-13T19:30:59.131Z,1
2022-10-13T19:33:02.436Z,1
2022-10-13T19:35:02.775Z,1
2022-10-13T19:36:59.132Z,1
2022-10-13T19:38:59.005Z,1
2022-10-13T19:40:59.188Z,1
2022-10-13T19:43:00.468Z,1
2022-10-13T19:44:59.064Z,1
2022-10-13T19:47:02.561Z,1
2022-10-13T19:49:06.060Z,1
2022-10-13T19:50:59.036Z,1
2022-10-13T19:53:02.622Z,1
2022-10-13T19:55:02.722Z,1
2022-10-13T19:56:59.135Z,1
2022-10-13T19:59:05.952Z,1
2022-10-13T20:00:59.173Z,1
2022-10-13T20:02:59.041Z,1
2022-10-13T20:05:03.170Z,1
2022-10-13T20:06:59.192Z,1
2022-10-13T20:08:58.755Z,1
2022-10-13T20:11:02.634Z,1
2022-10-13T20:12:59.055Z,1
2022-10-13T20:14:59.292Z,1
2022-10-13T20:16:59.277Z,1
2022-10-13T20:20:59.014Z,1
2022-10-13T20:23:02.369Z,1
2022-10-13T20:24:59.301Z,1
2022-10-13T20:26:59.031Z,1
2022-10-13T20:28:59.432Z,1
2022-10-13T20:30:59.137Z,1
2022-10-13T20:33:11.557Z,1
2022-10-13T20:34:59.110Z,1
2022-10-13T20:36:59.103Z,1
2022-10-13T20:39:06.770Z,1
2022-10-13T20:41:05.827Z,1
2022-10-13T20:42:59.122Z,1
2022-10-13T20:44:59.048Z,1
2022-10-13T20:46:59.153Z,1
2022-10-13T20:49:10.244Z,1
2022-10-13T20:51:02.884Z,1
2022-10-13T20:52:59.175Z,1
2022-10-13T20:55:00.529Z,1
2022-10-13T20:57:05.505Z,1
2022-10-13T20:58:59.464Z,1
2022-10-13T21:00:59.119Z,1
2022-10-13T21:03:02.006Z,1
2022-10-13T21:04:59.192Z,1
2022-10-13T21:06:59.179Z,1
2022-10-13T21:09:02.925Z,1
2022-10-13T21:10:59.102Z,1
2022-10-13T21:13:03.856Z,1
2022-10-13T21:14:59.242Z,1
2022-10-13T21:17:02.878Z,1
2022-10-13T21:18:59.555Z,1
2022-10-13T21:21:04.218Z,1
2022-10-13T21:22:59.295Z,1
2022-10-13T21:25:05.886Z,1
2022-10-13T21:26:59.124Z,1
2022-10-13T21:28:59.448Z,1
2022-10-13T21:31:02.650Z,1
2022-10-13T21:32:58.991Z,1
2022-10-13T21:34:59.164Z,1
2022-10-13T21:36:59.232Z,1
2022-10-13T21:38:59.206Z,1
2022-10-13T21:41:04.081Z,1
2022-10-13T21:42:59.522Z,1
2022-10-13T21:44:58.870Z,1
2022-10-13T21:47:02.624Z,1
2022-10-13T21:49:02.767Z,1
2022-10-13T21:50:59.414Z,1
2022-10-13T21:52:59.379Z,1
2022-10-13T21:55:02.632Z,1
2022-10-13T21:56:59.545Z,1
2022-10-13T21:59:05.990Z,1
2022-10-13T22:00:59.308Z,1
2022-10-13T22:03:02.587Z,1
2022-10-13T22:04:59.349Z,1
2022-10-13T22:07:02.777Z,1
2022-10-13T22:09:02.389Z,1
2022-10-13T22:12:59.100Z,1
2022-10-13T22:14:58.879Z,1
2022-10-13T22:17:03.309Z,1
2022-10-13T22:19:02.688Z,1
2022-10-13T22:20:59.159Z,1
2022-10-13T22:22:59.380Z,1
2022-10-13T22:25:05.625Z,1
2022-10-13T22:26:59.165Z,1
2022-10-13T22:28:59.312Z,1
2022-10-13T22:31:04.652Z,1
2022-10-13T22:32:59.039Z,1
2022-10-13T22:34:59.135Z,1
2022-10-13T22:36:59.296Z,1
2022-10-13T22:39:00.569Z,1
2022-10-13T22:40:58.887Z,1
2022-10-13T22:43:05.832Z,1
2022-10-13T22:44:59.137Z,1
2022-10-13T22:46:59.197Z,1
2022-10-13T22:49:02.237Z,1
2022-10-13T22:50:58.889Z,1
2022-10-13T22:53:02.687Z,1
2022-10-13T22:54:59.188Z,1
2022-10-13T22:56:59.368Z,1
2022-10-13T22:59:00.053Z,1
2022-10-13T23:00:59.505Z,1
2022-10-13T23:03:02.530Z,1
2022-10-13T23:04:59.097Z,1
2022-10-13T23:06:59.080Z,1
2022-10-13T23:09:00.082Z,1
2022-10-13T23:11:06.057Z,1
2022-10-13T23:12:58.979Z,1
2022-10-13T23:15:03.891Z,1
2022-10-13T23:16:59.042Z,1
2022-10-13T23:18:59.187Z,1
2022-10-13T23:21:02.460Z,1
2022-10-13T23:22:58.879Z,1
2022-10-13T23:25:02.731Z,1
2022-10-13T23:26:59.170Z,1
2022-10-13T23:29:02.990Z,1
2022-10-13T23:31:02.778Z,1
2022-10-13T23:32:59.074Z,1
2022-10-13T23:34:59.066Z,1
2022-10-13T23:37:03.383Z,1
2022-10-13T23:38:59.455Z,1
2022-10-13T23:41:02.486Z,1
2022-10-13T23:42:59.043Z,1
2022-10-13T23:45:02.593Z,1
2022-10-13T23:46:59.155Z,1
2022-10-13T23:48:59.178Z,1
2022-10-13T23:51:02.430Z,1
2022-10-13T23:52:59.281Z,1
2022-10-13T23:55:06.173Z,1
2022-10-13T23:57:05.888Z,1
2022-10-13T23:58:59.583Z,1
